createdAt,value
2019-05-23T00:01:05.653Z,15.00
2019-05-23T00:03:36.529Z,15.20
2019-05-23T00:06:04.775Z,14.10
2019-05-23T00:08:32.247Z,15.57
2019-05-23T00:11:01.981Z,14.03
2019-05-23T00:13:44.606Z,14.67
2019-05-23T00:16:12.048Z,14.33
2019-05-23T00:18:39.534Z,15.37
2019-05-23T00:21:06.970Z,18.23
2019-05-23T00:23:34.421Z,14.13
2019-05-23T00:26:01.912Z,15.17
2019-05-23T00:28:29.962Z,15.43
2019-05-23T00:30:57.426Z,15.67
2019-05-23T00:33:25.696Z,15.70
2019-05-23T00:35:53.183Z,16.87
2019-05-23T00:38:21.082Z,16.13
2019-05-23T00:40:48.656Z,16.30
2019-05-23T00:43:16.216Z,17.30
2019-05-23T00:45:43.694Z,17.83
2019-05-23T00:48:11.118Z,17.73
2019-05-23T00:50:38.571Z,17.90
2019-05-23T00:53:06.086Z,18.83
2019-05-23T00:55:33.521Z,19.27
2019-05-23T00:58:00.980Z,21.07
2019-05-23T01:00:28.477Z,20.67
2019-05-23T01:02:55.941Z,19.37
2019-05-23T01:05:23.446Z,18.50
2019-05-23T01:07:50.869Z,19.73
2019-05-23T01:10:18.553Z,19.50
2019-05-23T01:12:45.858Z,20.08
2019-05-23T01:15:13.314Z,19.92
2019-05-23T01:17:40.750Z,20.17
2019-05-23T01:20:08.252Z,22.87
2019-05-23T01:22:35.706Z,18.35
2019-05-23T01:25:03.215Z,21.37
2019-05-23T01:27:31.234Z,18.73
2019-05-23T01:29:58.716Z,19.43
2019-05-23T01:32:29.553Z,20.97
2019-05-23T01:34:57.770Z,20.23
2019-05-23T01:37:25.470Z,20.57
2019-05-23T01:39:52.952Z,18.47
2019-05-23T01:42:20.417Z,18.63
2019-05-23T01:44:47.863Z,20.97
2019-05-23T01:47:16.184Z,21.00
2019-05-23T01:49:43.737Z,21.73
2019-05-23T01:52:11.195Z,20.73
2019-05-23T01:54:38.657Z,20.33
2019-05-23T01:57:06.126Z,21.65
2019-05-23T01:59:33.610Z,25.10
2019-05-23T02:02:01.992Z,20.58
2019-05-23T02:04:29.445Z,20.03
2019-05-23T02:06:57.038Z,19.10
2019-05-23T02:09:24.400Z,19.70
2019-05-23T02:11:51.874Z,21.47
2019-05-23T02:14:19.348Z,20.15
2019-05-23T02:16:46.794Z,18.17
2019-05-23T02:19:14.319Z,23.85
2019-05-23T02:21:41.763Z,20.98
2019-05-23T02:24:09.365Z,19.67
2019-05-23T02:26:36.721Z,20.77
2019-05-23T02:29:04.162Z,21.50
2019-05-23T02:31:32.506Z,21.40
2019-05-23T02:33:59.982Z,19.53
2019-05-23T02:36:27.428Z,22.70
2019-05-23T02:38:54.887Z,23.03
2019-05-23T02:41:25.211Z,21.77
2019-05-23T02:43:52.665Z,21.63
2019-05-23T02:46:23.551Z,21.97
2019-05-23T02:48:51.828Z,21.80
2019-05-23T02:51:24.705Z,21.67
2019-05-23T02:53:52.137Z,21.17
2019-05-23T02:56:20.673Z,21.40
2019-05-23T02:58:54.639Z,21.67
2019-05-23T03:01:26.613Z,21.57
2019-05-23T03:03:54.060Z,21.20
2019-05-23T03:06:21.496Z,22.20
2019-05-23T03:08:48.944Z,22.70
2019-05-23T03:11:31.964Z,21.03
2019-05-23T03:13:59.427Z,22.50
2019-05-23T03:16:26.888Z,21.87
2019-05-23T03:18:54.343Z,24.17
2019-05-23T03:21:21.789Z,23.47
2019-05-23T03:23:49.213Z,22.00
2019-05-23T03:26:20.927Z,22.05
2019-05-23T03:28:48.387Z,21.50
2019-05-23T03:31:29.695Z,21.83
2019-05-23T03:33:43.345Z,23.57
2019-05-23T03:36:10.805Z,21.98
2019-05-23T03:38:38.282Z,24.53
2019-05-23T03:41:05.719Z,26.17
2019-05-23T03:43:34.078Z,23.40
2019-05-23T03:46:01.981Z,28.67
2019-05-23T03:48:29.440Z,24.50
2019-05-23T03:50:56.892Z,22.57
2019-05-23T03:53:24.348Z,21.23
2019-05-23T03:55:51.808Z,22.87
2019-05-23T03:58:19.251Z,27.53
2019-05-23T04:00:48.684Z,23.33
2019-05-23T04:03:16.143Z,23.37
2019-05-23T04:05:43.639Z,24.30
2019-05-23T04:08:11.087Z,22.83
2019-05-23T04:10:38.567Z,24.10
2019-05-23T04:13:06.037Z,23.53
2019-05-23T04:15:33.502Z,22.33
2019-05-23T04:18:00.966Z,22.47
2019-05-23T04:20:28.444Z,22.93
2019-05-23T04:22:55.905Z,25.60
2019-05-23T04:25:23.381Z,27.37
2019-05-23T04:27:50.841Z,23.60
2019-05-23T04:30:18.290Z,20.73
2019-05-23T04:32:45.755Z,25.08
2019-05-23T04:35:13.220Z,23.10
2019-05-23T04:37:40.680Z,23.55
2019-05-23T04:40:08.131Z,23.57
2019-05-23T04:42:35.583Z,25.80
2019-05-23T04:45:03.017Z,23.40
2019-05-23T04:47:30.456Z,23.27
2019-05-23T04:49:57.928Z,26.10
2019-05-23T04:52:25.384Z,28.43
2019-05-23T04:54:52.823Z,26.33
2019-05-23T04:57:20.276Z,25.67
2019-05-23T04:59:47.750Z,29.43
2019-05-23T05:02:25.315Z,28.53
2019-05-23T05:04:42.780Z,25.58
2019-05-23T05:07:10.234Z,23.05
2019-05-23T05:09:37.687Z,22.87
2019-05-23T05:12:06.092Z,23.42
2019-05-23T05:14:33.579Z,23.47
2019-05-23T05:17:01.058Z,30.20
2019-05-23T05:19:28.521Z,22.07
2019-05-23T05:21:56.031Z,25.07
2019-05-23T05:24:23.500Z,23.90
2019-05-23T05:26:51.652Z,23.53
2019-05-23T05:29:19.167Z,25.63
2019-05-23T05:31:46.705Z,23.37
2019-05-23T05:34:14.165Z,23.53
2019-05-23T05:36:41.621Z,23.70
2019-05-23T05:39:09.051Z,25.10
2019-05-23T05:41:36.619Z,24.77
2019-05-23T05:44:04.451Z,25.03
2019-05-23T05:46:31.923Z,19.33
2019-05-23T05:48:59.405Z,22.80
2019-05-23T05:51:26.857Z,25.67
2019-05-23T05:53:54.325Z,21.93
2019-05-23T05:56:21.811Z,29.12
2019-05-23T05:58:49.283Z,20.77
2019-05-23T06:01:32.874Z,22.62
2019-05-23T06:03:44.215Z,21.17
2019-05-23T06:06:12.490Z,20.80
2019-05-23T06:08:40.286Z,25.40
2019-05-23T06:11:07.790Z,23.53
2019-05-23T06:13:36.375Z,23.70
2019-05-23T06:16:03.921Z,25.73
2019-05-23T06:18:31.381Z,24.33
2019-05-23T06:20:58.827Z,25.50
2019-05-23T06:23:26.305Z,26.70
2019-05-23T06:25:53.766Z,24.65
2019-05-23T06:28:21.294Z,24.63
2019-05-23T06:30:48.746Z,33.03
2019-05-23T06:33:23.337Z,26.93
2019-05-23T06:35:43.684Z,25.40
2019-05-23T06:38:11.147Z,26.60
2019-05-23T06:40:38.626Z,29.57
2019-05-23T06:43:06.098Z,23.23
2019-05-23T06:45:33.533Z,27.23
2019-05-23T06:48:01.130Z,32.83
2019-05-23T06:50:28.617Z,33.10
2019-05-23T06:52:56.110Z,24.83
2019-05-23T06:55:23.719Z,29.13
2019-05-23T06:57:51.202Z,27.25
2019-05-23T07:00:18.667Z,30.67
2019-05-23T07:02:46.129Z,25.45
2019-05-23T07:05:13.554Z,24.23
2019-05-23T07:07:41.011Z,24.87
2019-05-23T07:10:08.492Z,23.45
2019-05-23T07:12:35.948Z,27.27
2019-05-23T07:15:03.460Z,21.45
2019-05-23T07:17:30.909Z,24.73
2019-05-23T07:19:58.356Z,22.73
2019-05-23T07:22:25.826Z,20.53
2019-05-23T07:24:58.051Z,17.73
2019-05-23T07:27:20.823Z,20.90
2019-05-23T07:29:48.294Z,17.85
2019-05-23T07:32:15.787Z,19.00
2019-05-23T07:34:43.239Z,14.57
2019-05-23T07:37:10.716Z,18.27
2019-05-23T07:39:39.018Z,14.37
2019-05-23T07:42:06.509Z,15.80
2019-05-23T07:44:47.476Z,18.92
2019-05-23T07:47:01.934Z,18.60
2019-05-23T07:49:29.383Z,18.67
2019-05-23T07:51:57.466Z,16.83
2019-05-23T07:54:24.926Z,18.83
2019-05-23T07:56:52.390Z,16.77
2019-05-23T07:59:19.857Z,14.57
2019-05-23T08:01:47.352Z,16.50
2019-05-23T08:04:21.464Z,16.48
2019-05-23T08:06:42.369Z,12.70
2019-05-23T08:09:09.795Z,12.27
2019-05-23T08:11:37.252Z,13.17
2019-05-23T08:14:04.693Z,13.13
2019-05-23T08:16:33.203Z,14.23
2019-05-23T08:19:00.823Z,15.90
2019-05-23T08:21:28.251Z,15.73
2019-05-23T08:23:55.714Z,13.93
2019-05-23T08:26:23.230Z,13.60
2019-05-23T08:29:12.680Z,15.73
2019-05-23T08:31:18.191Z,14.50
2019-05-23T08:33:45.647Z,13.65
2019-05-23T08:36:13.110Z,15.48
2019-05-23T08:38:40.563Z,13.93
2019-05-23T08:41:08.030Z,14.43
2019-05-23T08:43:35.501Z,11.70
2019-05-23T08:46:03.021Z,11.37
2019-05-23T08:48:30.417Z,12.07
2019-05-23T08:50:57.909Z,12.27
2019-05-23T08:53:25.368Z,12.40
2019-05-23T08:55:52.826Z,11.53
2019-05-23T08:58:20.289Z,19.90
2019-05-23T09:00:47.754Z,12.90
2019-05-23T09:03:15.196Z,14.83
2019-05-23T09:05:42.704Z,11.27
2019-05-23T09:08:10.718Z,12.48
2019-05-23T09:10:38.138Z,10.70
2019-05-23T09:13:05.588Z,10.60
2019-05-23T09:15:33.039Z,11.77
2019-05-23T09:18:00.530Z,11.97
2019-05-23T09:20:29.656Z,11.65
2019-05-23T09:22:57.256Z,12.13
2019-05-23T09:25:24.684Z,11.03
2019-05-23T09:27:52.169Z,9.57
2019-05-23T09:30:19.650Z,12.23
2019-05-23T09:32:47.110Z,10.67
2019-05-23T09:35:20.871Z,9.53
2019-05-23T09:37:42.076Z,8.77
2019-05-23T09:40:09.529Z,8.93
2019-05-23T09:42:37.029Z,8.27
2019-05-23T09:45:05.193Z,7.83
2019-05-23T09:47:32.644Z,8.60
2019-05-23T09:50:00.106Z,9.23
2019-05-23T09:52:27.567Z,9.23
2019-05-23T09:54:55.913Z,9.37
2019-05-23T09:57:23.379Z,9.32
2019-05-23T09:59:50.827Z,11.43
2019-05-23T10:02:18.288Z,8.90
2019-05-23T10:04:45.821Z,11.50
2019-05-23T10:07:13.269Z,10.17
2019-05-23T10:09:40.736Z,10.70
2019-05-23T10:12:08.214Z,9.57
2019-05-23T10:14:38.027Z,9.57
2019-05-23T10:17:05.447Z,10.73
2019-05-23T10:19:32.897Z,9.60
2019-05-23T10:22:00.348Z,11.30
2019-05-23T10:24:27.804Z,10.30
2019-05-23T10:26:55.272Z,9.50
2019-05-23T10:29:22.737Z,7.90
2019-05-23T10:31:50.201Z,7.57
2019-05-23T10:34:17.646Z,9.17
2019-05-23T10:36:45.103Z,9.03
2019-05-23T10:39:12.544Z,9.80
2019-05-23T10:41:40.008Z,8.67
2019-05-23T10:44:07.467Z,9.10
2019-05-23T10:46:34.941Z,10.70
2019-05-23T10:49:02.434Z,8.67
2019-05-23T10:51:29.880Z,7.90
2019-05-23T10:53:57.335Z,9.07
2019-05-23T10:56:24.782Z,8.75
2019-05-23T10:58:52.215Z,7.53
2019-05-23T11:01:19.666Z,7.30
2019-05-23T11:03:47.178Z,7.77
2019-05-23T11:06:16.712Z,7.70
2019-05-23T11:08:42.981Z,8.32
2019-05-23T11:11:14.203Z,8.70
2019-05-23T11:13:37.964Z,13.18
2019-05-23T11:16:05.429Z,8.77
2019-05-23T11:18:32.863Z,8.27
2019-05-23T11:21:00.342Z,6.97
2019-05-23T11:23:27.797Z,8.80
2019-05-23T11:25:55.263Z,8.38
2019-05-23T11:28:22.726Z,9.57
2019-05-23T11:30:51.902Z,8.30
2019-05-23T11:33:19.330Z,7.70
2019-05-23T11:35:46.794Z,8.83
2019-05-23T11:38:14.217Z,9.50
2019-05-23T11:40:41.660Z,8.97
2019-05-23T11:43:09.140Z,10.10
2019-05-23T11:45:45.870Z,8.17
2019-05-23T11:48:06.448Z,7.93
2019-05-23T11:50:33.921Z,9.70
2019-05-23T11:53:01.363Z,9.63
2019-05-23T11:55:28.865Z,9.03
2019-05-23T11:57:56.300Z,9.63
2019-05-23T12:00:44.507Z,8.73
2019-05-23T12:03:11.952Z,11.10
2019-05-23T12:05:39.419Z,11.47
2019-05-23T12:08:06.890Z,11.33
2019-05-23T12:10:34.357Z,9.70
2019-05-23T12:13:01.857Z,10.23
2019-05-23T12:15:29.293Z,10.77
2019-05-23T12:17:56.824Z,11.17
2019-05-23T12:20:24.369Z,11.27
2019-05-23T12:22:51.912Z,12.43
2019-05-23T12:25:22.465Z,11.93
2019-05-23T12:27:47.142Z,10.73
2019-05-23T12:30:15.165Z,12.00
2019-05-23T12:32:42.659Z,12.97
2019-05-23T12:35:12.247Z,10.93
2019-05-23T12:37:39.598Z,10.40
2019-05-23T12:40:07.056Z,10.33
2019-05-23T12:42:34.529Z,10.70
2019-05-23T12:45:02.198Z,10.37
2019-05-23T12:47:29.478Z,10.13
2019-05-23T12:49:56.959Z,10.00
2019-05-23T12:52:24.428Z,12.80
2019-05-23T12:54:51.880Z,13.95
2019-05-23T12:57:19.354Z,11.73
2019-05-23T12:59:46.818Z,11.40
2019-05-23T13:02:14.292Z,10.60
2019-05-23T13:04:41.751Z,10.93
2019-05-23T13:07:09.230Z,11.00
2019-05-23T13:09:36.702Z,9.90
2019-05-23T13:12:04.628Z,11.87
2019-05-23T13:14:32.020Z,10.63
2019-05-23T13:17:00.975Z,10.83
2019-05-23T13:19:26.957Z,10.07
2019-05-23T13:21:54.413Z,9.53
2019-05-23T13:24:21.881Z,8.33
2019-05-23T13:26:50.597Z,9.97
2019-05-23T13:29:18.123Z,10.25
2019-05-23T13:31:46.265Z,10.77
2019-05-23T13:34:13.732Z,9.10
2019-05-23T13:36:41.198Z,10.67
2019-05-23T13:39:08.654Z,9.83
2019-05-23T13:41:36.091Z,7.77
2019-05-23T13:44:03.524Z,8.87
2019-05-23T13:46:30.977Z,8.07
2019-05-23T13:48:58.755Z,6.80
2019-05-23T13:51:25.923Z,10.00
2019-05-23T13:53:53.940Z,6.40
2019-05-23T13:56:21.694Z,7.28
2019-05-23T13:58:49.126Z,8.17
2019-05-23T14:01:16.860Z,6.93
2019-05-23T14:03:44.355Z,10.13
2019-05-23T14:06:11.812Z,7.12
2019-05-23T14:08:39.265Z,7.30
2019-05-23T14:11:06.739Z,7.67
2019-05-23T14:13:34.278Z,7.60
2019-05-23T14:16:01.712Z,7.43
2019-05-23T14:18:29.171Z,7.77
2019-05-23T14:20:56.618Z,8.20
2019-05-23T14:23:28.053Z,6.75
2019-05-23T14:25:55.503Z,6.00
2019-05-23T14:28:22.990Z,5.35
2019-05-23T14:30:51.801Z,6.07
2019-05-23T14:33:33.972Z,5.77
2019-05-23T14:36:01.744Z,5.90
2019-05-23T14:38:31.070Z,5.50
2019-05-23T14:40:56.696Z,5.33
2019-05-23T14:43:25.652Z,5.07
2019-05-23T14:45:54.866Z,4.50
2019-05-23T14:48:28.097Z,4.67
2019-05-23T14:50:57.697Z,4.45
2019-05-23T14:53:29.621Z,6.40
2019-05-23T14:55:57.100Z,4.28
2019-05-23T14:58:24.551Z,4.43
2019-05-23T15:00:52.019Z,4.57
2019-05-23T15:03:20.213Z,4.00
2019-05-23T15:05:47.963Z,3.72
2019-05-23T15:08:16.111Z,3.47
2019-05-23T15:10:43.578Z,3.30
2019-05-23T15:13:11.423Z,3.10
2019-05-23T15:15:38.882Z,7.67
2019-05-23T15:18:06.326Z,2.77
2019-05-23T15:20:33.773Z,2.80
2019-05-23T15:23:01.195Z,2.62
2019-05-23T15:25:28.641Z,2.70
2019-05-23T15:27:56.921Z,3.33
2019-05-23T15:30:24.377Z,2.63
2019-05-23T15:32:51.817Z,3.00
2019-05-23T15:35:19.253Z,2.60
2019-05-23T15:37:46.748Z,4.27
2019-05-23T15:40:14.154Z,2.27
2019-05-23T15:42:41.618Z,2.33
2019-05-23T15:45:09.087Z,2.43
2019-05-23T15:47:36.563Z,2.90
2019-05-23T15:50:10.869Z,4.10
2019-05-23T15:52:44.497Z,3.00
2019-05-23T15:55:13.881Z,4.07
2019-05-23T15:57:44.875Z,3.60
2019-05-23T16:00:30.149Z,2.87
2019-05-23T16:02:57.587Z,2.40
2019-05-23T16:05:25.037Z,2.73
2019-05-23T16:07:52.515Z,3.27
2019-05-23T16:10:19.975Z,2.60
2019-05-23T16:12:47.427Z,3.53
2019-05-23T16:15:14.864Z,3.43
2019-05-23T16:17:42.325Z,2.47
2019-05-23T16:20:09.752Z,3.10
2019-05-23T16:22:37.192Z,3.90
2019-05-23T16:25:04.672Z,3.43
2019-05-23T16:27:32.168Z,2.50
2019-05-23T16:29:59.594Z,2.70
2019-05-23T16:32:27.471Z,2.40
2019-05-23T16:34:54.914Z,2.50
2019-05-23T16:37:22.363Z,4.20
2019-05-23T16:39:50.307Z,2.60
2019-05-23T16:42:17.392Z,3.50
2019-05-23T16:44:44.846Z,2.50
2019-05-23T16:47:12.306Z,2.87
2019-05-23T16:49:41.558Z,3.03
2019-05-23T16:52:08.998Z,2.62
2019-05-23T16:54:36.487Z,2.83
2019-05-23T16:57:09.452Z,2.17
2019-05-23T16:59:53.573Z,2.80
2019-05-23T17:02:22.419Z,3.77
2019-05-23T17:05:09.434Z,3.90
2019-05-23T17:07:37.727Z,2.77
2019-05-23T17:10:09.323Z,3.40
2019-05-23T17:12:35.956Z,2.95
2019-05-23T17:15:03.407Z,2.42
2019-05-23T17:18:02.319Z,2.43
2019-05-23T17:20:20.712Z,3.17
2019-05-23T17:22:53.459Z,3.30
2019-05-23T17:25:21.862Z,2.87
2019-05-23T17:27:49.686Z,2.63
2019-05-23T17:30:32.939Z,2.47
2019-05-23T17:33:00.372Z,3.07
2019-05-23T17:35:28.349Z,2.60
2019-05-23T17:37:55.775Z,2.80
2019-05-23T17:40:25.282Z,13.43
2019-05-23T17:42:50.722Z,4.10
2019-05-23T17:45:18.166Z,2.57
2019-05-23T17:47:45.595Z,2.43
2019-05-23T17:50:13.063Z,3.50
2019-05-23T17:52:40.499Z,2.60
2019-05-23T17:55:07.963Z,2.60
2019-05-23T17:57:35.412Z,2.60
2019-05-23T18:00:02.884Z,2.83
2019-05-23T18:02:30.288Z,2.90
2019-05-23T18:04:57.749Z,2.93
2019-05-23T18:07:25.232Z,2.83
2019-05-23T18:09:52.744Z,2.63
2019-05-23T18:12:20.245Z,2.83
2019-05-23T18:14:47.735Z,2.93
2019-05-23T18:17:15.360Z,2.42
2019-05-23T18:19:42.805Z,2.70
2019-05-23T18:22:10.434Z,2.50
2019-05-23T18:24:38.124Z,3.00
2019-05-23T18:27:05.779Z,2.10
2019-05-23T18:29:33.302Z,2.20
2019-05-23T18:32:00.763Z,2.10
2019-05-23T18:34:28.345Z,2.63
2019-05-23T18:36:55.832Z,2.57
2019-05-23T18:39:23.402Z,3.63
2019-05-23T18:41:50.842Z,3.23
2019-05-23T18:44:18.318Z,2.63
2019-05-23T18:46:48.278Z,2.80
2019-05-23T18:49:15.834Z,2.65
2019-05-23T18:51:43.275Z,4.83
2019-05-23T18:54:10.846Z,2.63
2019-05-23T18:56:38.406Z,2.80
2019-05-23T18:59:05.880Z,3.17
2019-05-23T19:01:34.340Z,3.27
2019-05-23T19:04:01.909Z,3.30
2019-05-23T19:06:30.333Z,6.03
2019-05-23T19:08:57.942Z,3.10
2019-05-23T19:11:25.561Z,3.03
2019-05-23T19:13:53.053Z,4.07
2019-05-23T19:16:20.546Z,2.50
2019-05-23T19:18:47.975Z,3.13
2019-05-23T19:21:15.430Z,2.80
2019-05-23T19:23:42.857Z,3.35
2019-05-23T19:26:10.306Z,5.95
2019-05-23T19:28:37.731Z,2.70
2019-05-23T19:31:05.301Z,4.73
2019-05-23T19:33:32.730Z,3.30
2019-05-23T19:36:01.248Z,4.53
2019-05-23T19:38:29.798Z,4.83
2019-05-23T19:40:57.323Z,4.03
2019-05-23T19:43:24.950Z,2.97
2019-05-23T19:45:52.451Z,3.00
2019-05-23T19:48:19.910Z,3.20
2019-05-23T19:50:47.420Z,3.37
2019-05-23T19:53:14.881Z,2.93
2019-05-23T19:55:42.355Z,4.80
2019-05-23T19:58:09.925Z,2.63
2019-05-23T20:00:37.436Z,2.60
2019-05-23T20:03:04.888Z,3.37
2019-05-23T20:05:35.472Z,3.40
2019-05-23T20:08:03.032Z,3.40
2019-05-23T20:10:30.456Z,7.70
2019-05-23T20:12:58.514Z,3.33
2019-05-23T20:15:26.029Z,4.67
2019-05-23T20:17:53.488Z,4.23
2019-05-23T20:20:20.900Z,3.50
2019-05-23T20:22:48.357Z,5.57
2019-05-23T20:25:15.846Z,4.28
2019-05-23T20:27:43.331Z,4.33
2019-05-23T20:30:10.807Z,4.53
2019-05-23T20:32:38.254Z,7.23
2019-05-23T20:35:05.710Z,4.93
2019-05-23T20:37:35.375Z,5.47
2019-05-23T20:40:00.611Z,4.37
2019-05-23T20:42:28.068Z,5.13
2019-05-23T20:44:55.536Z,4.17
2019-05-23T20:47:22.959Z,4.43
2019-05-23T20:49:50.399Z,4.17
2019-05-23T20:52:17.815Z,3.70
2019-05-23T20:54:45.255Z,3.97
2019-05-23T20:57:13.611Z,3.53
2019-05-23T20:59:41.736Z,3.83
2019-05-23T21:02:09.279Z,3.78
2019-05-23T21:04:36.777Z,4.18
2019-05-23T21:07:05.123Z,3.03
2019-05-23T21:09:32.999Z,2.97
2019-05-23T21:12:00.461Z,2.73
2019-05-23T21:14:27.921Z,2.93
2019-05-23T21:16:55.358Z,3.23
2019-05-23T21:19:22.801Z,2.93
2019-05-23T21:21:50.256Z,2.90
2019-05-23T21:24:17.770Z,2.70
2019-05-23T21:26:45.490Z,2.77
2019-05-23T21:29:12.947Z,3.63
2019-05-23T21:31:40.432Z,2.80
2019-05-23T21:34:07.871Z,3.17
2019-05-23T21:36:35.329Z,2.40
2019-05-23T21:39:03.963Z,2.65
2019-05-23T21:41:31.532Z,2.70
2019-05-23T21:43:59.416Z,2.63
2019-05-23T21:46:26.833Z,2.20
2019-05-23T21:48:54.348Z,2.60
2019-05-23T21:51:21.897Z,2.17
2019-05-23T21:53:49.483Z,2.40
2019-05-23T21:56:17.051Z,3.63
2019-05-23T21:58:44.612Z,2.47
2019-05-23T22:01:26.946Z,4.30
2019-05-23T22:03:54.963Z,3.17
2019-05-23T22:06:22.456Z,2.00
2019-05-23T22:08:50.111Z,2.43
2019-05-23T22:11:17.599Z,2.47
2019-05-23T22:13:45.260Z,2.50
2019-05-23T22:16:12.701Z,2.30
2019-05-23T22:18:40.260Z,2.17
2019-05-23T22:21:07.748Z,2.73
2019-05-23T22:23:35.227Z,3.67
2019-05-23T22:26:02.711Z,2.40
2019-05-23T22:28:30.271Z,2.00
2019-05-23T22:30:57.723Z,2.10
2019-05-23T22:33:26.551Z,2.27
2019-05-23T22:35:53.991Z,2.17
2019-05-23T22:38:21.457Z,3.37
2019-05-23T22:40:49.508Z,2.50
2019-05-23T22:43:21.045Z,2.30
2019-05-23T22:45:44.663Z,2.17
2019-05-23T22:48:12.295Z,2.40
2019-05-23T22:50:39.726Z,7.77
2019-05-23T22:53:07.327Z,2.20
2019-05-23T22:55:35.520Z,2.35
2019-05-23T22:58:03.232Z,3.90
2019-05-23T23:00:33.102Z,2.20
2019-05-23T23:03:00.930Z,2.37
2019-05-23T23:05:28.354Z,2.30
2019-05-23T23:07:55.854Z,2.30
2019-05-23T23:10:23.375Z,3.03
2019-05-23T23:12:50.856Z,2.60
2019-05-23T23:15:18.337Z,2.55
2019-05-23T23:17:45.766Z,2.30
2019-05-23T23:20:13.210Z,2.35
2019-05-23T23:22:40.647Z,2.58
2019-05-23T23:25:08.255Z,2.40
2019-05-23T23:27:36.270Z,2.40
2019-05-23T23:30:03.742Z,2.40
2019-05-23T23:32:31.499Z,2.53
2019-05-23T23:34:58.957Z,2.30
2019-05-23T23:37:26.437Z,2.60
2019-05-23T23:39:53.897Z,3.58
2019-05-23T23:42:21.440Z,2.40
2019-05-23T23:44:48.584Z,2.90
2019-05-23T23:47:21.807Z,2.80
2019-05-23T23:49:54.841Z,2.62
2019-05-23T23:52:27.980Z,2.65
2019-05-23T23:55:01.335Z,2.70
2019-05-23T23:57:34.385Z,2.40
